Time,TemperatureF,DewpointF,PressureIn,WindDirection,WindDirectionDegrees,WindSpeedMPH,WindSpeedGustMPH,Humidity,HourlyPrecipIn,Conditions,Clouds,dailyrainin,SoftwareType,DateUTC
2013-03-13 01:04:00,-999.0,-99.9,-100.00,NNW,331,1.0,-999.0,-999,-99.99,,,-99.99,,2013-03-13 08:04:00,
2013-03-13 01:12:00,62.0,-99.9,-100.00,North,-999,-999.0,-999.0,-999,-99.99,,,-99.99,,2013-03-13 08:12:00,
2013-03-13 01:43:00,60.0,-99.9,-100.00,North,-999,-999.0,-999.0,-999,-99.99,,,-99.99,,2013-03-13 08:43:00,
2013-03-13 01:54:00,60.0,-99.9,-100.00,North,-999,-999.0,-999.0,-999,-99.99,,,-99.99,,2013-03-13 08:54:00,
2013-03-13 02:02:00,60.0,-99.9,-100.00,North,-999,-999.0,-999.0,-999,-99.99,,,-99.99,,2013-03-13 09:02:00,
2013-03-13 02:13:00,-999.0,-99.9,-100.00,NNW,331,2.0,-999.0,-999,-99.99,,,-99.99,,2013-03-13 09:13:00,
2013-03-13 02:23:00,-999.0,-99.9,-100.00,NNW,331,2.0,-999.0,-999,-99.99,,,-99.99,,2013-03-13 09:23:00,
2013-03-13 02:53:00,59.0,-99.9,-100.00,North,-999,-999.0,-999.0,-999,-99.99,,,-99.99,,2013-03-13 09:53:00,
2013-03-13 03:02:00,-999.0,-99.9,-100.00,WNW,303,0.0,-999.0,-999,-99.99,,,-99.99,,2013-03-13 10:02:00,
2013-03-13 03:42:00,-999.0,-99.9,-100.00,North,-999,1.0,-999.0,-999,-99.99,,,-99.99,,2013-03-13 10:42:00,
2013-03-13 03:52:00,-999.0,-99.9,-100.00,North,-999,1.0,-999.0,-999,-99.99,,,-99.99,,2013-03-13 10:52:00,
2013-03-13 04:03:00,-999.0,-99.9,-100.00,North,-999,1.0,-999.0,-999,-99.99,,,-99.99,,2013-03-13 11:03:00,
2013-03-13 04:13:00,-999.0,-99.9,-100.00,NNW,337,5.0,-999.0,-999,-99.99,,,-99.99,,2013-03-13 11:13:00,
2013-03-13 04:23:00,-999.0,-99.9,-100.00,NNW,337,5.0,-999.0,-999,-99.99,,,-99.99,,2013-03-13 11:23:00,
2013-03-13 04:32:00,-999.0,-99.9,-100.00,NNW,337,5.0,-999.0,-999,-99.99,,,-99.99,,2013-03-13 11:32:00,
2013-03-13 04:42:00,-999.0,-99.9,-100.00,North,-999,1.0,-999.0,-999,-99.99,,,-99.99,,2013-03-13 11:42:00,
2013-03-13 04:53:00,-999.0,-99.9,-100.00,NW,326,4.0,-999.0,-999,-99.99,,,-99.99,,2013-03-13 11:53:00,
2013-03-13 05:02:00,-999.0,-99.9,-100.00,NW,326,4.0,-999.0,-999,-99.99,,,-99.99,,2013-03-13 12:02:00,
2013-03-13 05:12:00,-999.0,-99.9,-100.00,NW,326,4.0,-999.0,-999,-99.99,,,-99.99,,2013-03-13 12:12:00,
2013-03-13 05:22:00,-999.0,-99.9,-100.00,NW,326,4.0,-999.0,-999,-99.99,,,-99.99,,2013-03-13 12:22:00,
2013-03-13 05:53:00,-999.0,-99.9,-100.00,NNW,331,3.0,-999.0,-999,-99.99,,,-99.99,,2013-03-13 12:53:00,
2013-03-13 06:02:00,-999.0,-99.9,-100.00,NNW,331,3.0,-999.0,-999,-99.99,,,-99.99,,2013-03-13 13:02:00,
2013-03-13 06:12:00,-999.0,-99.9,-100.00,NNW,331,3.0,-999.0,-999,-99.99,,,-99.99,,2013-03-13 13:12:00,
2013-03-13 06:22:00,-999.0,-99.9,-100.00,NW,315,5.0,-999.0,-999,-99.99,,,-99.99,,2013-03-13 13:22:00,
2013-03-13 06:33:00,-999.0,-99.9,-100.00,NW,315,5.0,-999.0,-999,-99.99,,,-99.99,,2013-03-13 13:33:00,
2013-03-13 06:44:00,-999.0,-99.9,-100.00,North,-999,1.0,-999.0,-999,-99.99,,,-99.99,,2013-03-13 13:44:00,
2013-03-13 06:53:00,-999.0,-99.9,-100.00,North,-999,1.0,-999.0,-999,-99.99,,,-99.99,,2013-03-13 13:53:00,
2013-03-13 07:03:00,-999.0,-99.9,-100.00,North,-999,1.0,-999.0,-999,-99.99,,,-99.99,,2013-03-13 14:03:00,
2013-03-13 07:12:00,-999.0,-99.9,-100.00,North,-999,1.0,-999.0,-999,-99.99,,,-99.99,,2013-03-13 14:12:00,
2013-03-13 07:53:00,-999.0,-99.9,-100.00,North,-999,1.0,-999.0,25,-99.99,,,-99.99,,2013-03-13 14:53:00,
2013-03-13 08:03:00,-999.0,-99.9,-100.00,North,-999,1.0,-999.0,25,-99.99,,,-99.99,,2013-03-13 15:03:00,
2013-03-13 08:33:00,64.0,-99.9,-100.00,North,-999,-999.0,-999.0,-999,-99.99,,,-99.99,,2013-03-13 15:33:00,
2013-03-13 08:53:00,69.0,-99.9,-100.00,North,-999,-999.0,-999.0,-999,-99.99,,,-99.99,,2013-03-13 15:53:00,
2013-03-13 09:03:00,67.0,-99.9,-100.00,North,-999,-999.0,-999.0,-999,-99.99,,,-99.99,,2013-03-13 16:03:00,
2013-03-13 09:33:00,69.0,-99.9,-100.00,North,-999,-999.0,-999.0,-999,-99.99,,,-99.99,,2013-03-13 16:33:00,
2013-03-13 10:23:00,71.0,-99.9,-100.00,North,-999,-999.0,-999.0,-999,-99.99,,,-99.99,,2013-03-13 17:23:00,
2013-03-13 11:22:00,74.0,-99.9,-100.00,North,-999,-999.0,-999.0,-999,-99.99,,,-99.99,,2013-03-13 18:22:00,
2013-03-13 12:32:00,-999.0,-99.9,-100.00,South,174,0.0,-999.0,-999,-99.99,,,-99.99,,2013-03-13 19:32:00,
2013-03-13 12:43:00,-999.0,-99.9,-100.00,North,-999,1.0,-999.0,-999,-99.99,,,-99.99,,2013-03-13 19:43:00,
2013-03-13 12:53:00,-999.0,-99.9,-100.00,North,-999,1.0,-999.0,-999,-99.99,,,-99.99,,2013-03-13 19:53:00,
2013-03-13 13:02:00,78.0,-99.9,-100.00,North,-999,-999.0,-999.0,-999,-99.99,,,-99.99,,2013-03-13 20:02:00,
2013-03-13 13:13:00,78.0,-99.9,-100.00,North,-999,-999.0,-999.0,-999,-99.99,,,-99.99,,2013-03-13 20:13:00,
2013-03-13 13:22:00,-999.0,-99.9,-100.00,North,-999,1.0,-999.0,-999,-99.99,,,-99.99,,2013-03-13 20:22:00,
2013-03-13 13:23:00,78.0,-99.9,-100.00,North,-999,-999.0,-999.0,-999,-99.99,,,-99.99,,2013-03-13 20:23:00,
2013-03-13 13:42:00,-999.0,-99.9,-100.00,North,-999,1.0,-999.0,-999,-99.99,,,-99.99,,2013-03-13 20:42:00,
2013-03-13 13:53:00,-999.0,-99.9,-100.00,North,-999,1.0,-999.0,-999,-99.99,,,-99.99,,2013-03-13 20:53:00,
2013-03-13 14:02:00,-999.0,-99.9,-100.00,North,-999,1.0,-999.0,-999,-99.99,,,-99.99,,2013-03-13 21:02:00,
2013-03-13 14:12:00,-999.0,-99.9,-100.00,North,-999,1.0,-999.0,-999,-99.99,,,-99.99,,2013-03-13 21:12:00,
2013-03-13 15:12:00,80.0,-99.9,-100.00,North,-999,-999.0,-999.0,-999,-99.99,,,-99.99,,2013-03-13 22:12:00,
2013-03-13 15:22:00,79.0,-99.9,-100.00,North,-999,-999.0,-999.0,-999,-99.99,,,-99.99,,2013-03-13 22:22:00,
2013-03-13 15:33:00,79.0,-99.9,-100.00,North,-999,-999.0,-999.0,-999,-99.99,,,-99.99,,2013-03-13 22:33:00,
2013-03-13 15:43:00,-999.0,-99.9,-100.00,North,-999,1.0,-999.0,-999,-99.99,,,-99.99,,2013-03-13 22:43:00,
2013-03-13 15:53:00,-999.0,-99.9,-100.00,North,-999,1.0,-999.0,-999,-99.99,,,-99.99,,2013-03-13 22:53:00,
2013-03-13 16:03:00,-999.0,-99.9,-100.00,North,-999,1.0,-999.0,-999,-99.99,,,-99.99,,2013-03-13 23:03:00,
2013-03-13 16:13:00,-999.0,-99.9,-100.00,North,-999,1.0,-999.0,-999,-99.99,,,-99.99,,2013-03-13 23:13:00,
2013-03-13 17:13:00,-999.0,-99.9,-100.00,ESE,123,0.0,-999.0,-999,-99.99,,,-99.99,,2013-03-14 00:13:00,
2013-03-13 17:22:00,-999.0,-99.9,-100.00,ESE,123,0.0,-999.0,-999,-99.99,,,-99.99,,2013-03-14 00:22:00,
2013-03-13 17:33:00,-999.0,-99.9,-100.00,ESE,123,0.0,-999.0,-999,-99.99,,,-99.99,,2013-03-14 00:33:00,
2013-03-13 18:43:00,74.0,-99.9,-100.00,North,-999,-999.0,-999.0,-999,-99.99,,,-99.99,,2013-03-14 01:43:00,
2013-03-13 18:53:00,74.0,-99.9,-100.00,North,-999,-999.0,-999.0,-999,-99.99,,,-99.99,,2013-03-14 01:53:00,
2013-03-13 19:02:00,72.0,-99.9,-100.00,North,-999,-999.0,-999.0,-999,-99.99,,,-99.99,,2013-03-14 02:02:00,
2013-03-13 20:02:00,68.0,-99.9,-100.00,North,-999,-999.0,-999.0,-999,-99.99,,,-99.99,,2013-03-14 03:02:00,
2013-03-13 20:12:00,-999.0,-99.9,-100.00,NNW,337,1.0,-999.0,-999,-99.99,,,-99.99,,2013-03-14 03:12:00,
2013-03-13 20:23:00,66.0,-99.9,-100.00,North,-999,-999.0,-999.0,-999,-99.99,,,-99.99,,2013-03-14 03:23:00,
2013-03-13 20:33:00,-999.0,-99.9,-100.00,NNW,343,7.0,-999.0,-999,-99.99,,,-99.99,,2013-03-14 03:33:00,
2013-03-13 20:53:00,-999.0,-99.9,-100.00,NNW,331,7.0,-999.0,-999,-99.99,,,-99.99,,2013-03-14 03:53:00,
2013-03-13 21:12:00,-999.0,-99.9,-100.00,NW,320,6.0,-999.0,-999,-99.99,,,-99.99,,2013-03-14 04:12:00,
2013-03-13 21:22:00,-999.0,-99.9,-100.00,NW,320,6.0,-999.0,-999,-99.99,,,-99.99,,2013-03-14 04:22:00,
2013-03-13 21:33:00,-999.0,-99.9,-100.00,NNW,348,7.0,-999.0,-999,-99.99,,,-99.99,,2013-03-14 04:33:00,
2013-03-13 21:42:00,-999.0,-99.9,-100.00,North,-999,1.0,-999.0,-999,-99.99,,,-99.99,,2013-03-14 04:42:00,
2013-03-13 21:53:00,-999.0,-99.9,-100.00,North,-999,1.0,-999.0,-999,-99.99,,,-99.99,,2013-03-14 04:53:00,
2013-03-13 22:02:00,-999.0,-99.9,-100.00,NNW,337,5.0,-999.0,-999,-99.99,,,-99.99,,2013-03-14 05:02:00,
2013-03-13 22:13:00,-999.0,-99.9,-100.00,NNW,337,5.0,-999.0,-999,-99.99,,,-99.99,,2013-03-14 05:13:00,
2013-03-13 22:22:00,-999.0,-99.9,-100.00,NNW,331,7.0,-999.0,-999,-99.99,,,-99.99,,2013-03-14 05:22:00,
2013-03-13 22:33:00,-999.0,-99.9,-100.00,NNW,331,7.0,-999.0,-999,-99.99,,,-99.99,,2013-03-14 05:33:00,
2013-03-13 22:43:00,-999.0,-99.9,-100.00,NNW,331,1.0,-999.0,-999,-99.99,,,-99.99,,2013-03-14 05:43:00,
2013-03-13 22:53:00,-999.0,-99.9,-100.00,NNW,331,1.0,-999.0,-999,-99.99,,,-99.99,,2013-03-14 05:53:00,
2013-03-13 23:02:00,-999.0,-99.9,-100.00,NW,320,8.0,-999.0,-999,-99.99,,,-99.99,,2013-03-14 06:02:00,
2013-03-13 23:12:00,-999.0,-99.9,-100.00,NW,320,8.0,-999.0,-999,-99.99,,,-99.99,,2013-03-14 06:12:00,
2013-03-13 23:22:00,64.0,-99.9,-100.00,North,-999,-999.0,-999.0,-999,-99.99,,,-99.99,,2013-03-14 06:22:00,
2013-03-13 23:33:00,66.0,-99.9,-100.00,North,-999,-999.0,-999.0,-999,-99.99,,,-99.99,,2013-03-14 06:33:00,